Latest Weather Observations for Bega

IDN60801

Issued at 9:35 am EST Wednesday 1 October 2014 (issued every 30 minutes, with the page automatically refreshed every 10 minutes)

About weather observations | Map of weather stations | Latest weather observations for NSW | Other Formats
Station Details ID: 069139 Name: BEGA AWS Lat: -36.67 Lon: 149.82 Height: 41.0 m
Data from the previous 72 hours. | See also: Recent months at Bega
Date/Time
EST
Temp
°C
App
Temp
°C
Dew
Point
Rel
Hum
%
Delta-T
°C
Wind Press
QNH
hPa
Press
MSL
hPa
Rain
since 9 am
mm
Dir
 
Spd
km/h
Gust
km/h
Spd
kts
Gust
kts
01/09:31am 13.5 4.7 1.5 44 5.2 WSW 37 56 20 30 1018.5 1018.5 0.0
01/09:30am 13.2 4.0 1.2 44 5.1 WSW 39 56 21 30 1018.4 1018.4 0.0
01/09:00am 12.4 2.3 0.5 44 5.0 WSW 43 69 23 37 1017.6 1017.6 1.6
01/08:30am 12.2 3.3 0.9 46 4.7 WSW 37 65 20 35 1016.8 1016.8 1.6
01/08:00am 11.6 0.9 0.1 45 4.7 WSW 46 65 25 35 1016.7 1016.7 1.6
01/07:30am 11.3 2.3 0.1 46 4.6 WSW 37 59 20 32 1016.7 1016.7 1.6
01/07:00am 10.8 2.8 0.2 48 4.3 WSW 32 59 17 32 1016.4 1016.4 1.6
01/06:30am 10.4 0.3 0.4 50 4.1 WSW 43 63 23 34 1015.2 1015.3 1.6
01/06:13am 10.2 0.9 0.5 51 4.0 WSW 39 57 21 31 1014.9 1014.9 1.6
01/06:00am 10.2 1.3 0.8 52 3.9 WSW 37 52 20 28 1014.4 1014.4 1.6
01/05:32am 10.9 2.5 -0.9 44 4.7 WSW 33 57 18 31 1013.6 1013.6 1.6
01/05:30am 10.7 2.9 -0.7 45 4.5 WSW 30 46 16 25 1013.6 1013.6 1.6
01/05:27am 10.8 3.4 -0.9 44 4.6 WSW 28 46 15 25 1013.4 1013.4 1.6
01/05:00am 10.8 4.9 -0.9 44 4.7 W 20 28 11 15 1012.7 1012.7 1.6
01/04:30am 10.6 4.4 -0.2 47 4.4 W 22 33 12 18 1012.6 1012.6 1.6
01/04:00am 10.2 4.8 2.6 59 3.3 WSW 20 30 11 16 1012.1 1012.1 1.6
01/03:30am 10.6 4.9 2.9 59 3.3 WSW 22 33 12 18 1011.6 1011.6 1.6
01/03:00am 10.6 3.9 3.4 61 3.2 WSW 28 37 15 20 1010.9 1010.9 1.6
01/02:30am 10.0 5.1 4.2 67 2.6 WSW 19 26 10 14 1010.7 1010.7 1.6
01/02:00am 9.4 5.7 4.6 72 2.1 W 13 22 7 12 1010.6 1010.6 1.6
01/01:30am 9.3 6.0 4.7 73 2.1 W 11 17 6 9 1010.6 1010.6 1.6
01/01:00am 9.7 5.0 5.3 74 2.0 W 19 28 10 15 1010.7 1010.7 1.6
01/12:30am 9.3 5.2 6.2 81 1.4 W 17 28 9 15 1010.5 1010.5 1.6
01/12:02am 9.1 3.0 6.5 84 1.2 WSW 28 46 15 25 1010.5 1010.5 1.6
01/12:00am 9.1 2.2 6.5 84 1.2 WSW 32 46 17 25 1010.4 1010.4 1.6
 
Date/Time
EST
Temp
°C
App
Temp
°C
Dew
Point
Rel
Hum
%
Delta-T
°C
Wind Press
QNH
hPa
Press
MSL
hPa
Rain
since 9 am
mm
Dir
 
Spd
km/h
Gust
km/h
Spd
kts
Gust
kts
30/11:30pm 9.9 2.4 6.1 77 1.8 WSW 35 56 19 30 1010.0 1010.0 0.2
30/11:28pm 10.1 2.6 6.3 77 1.8 WSW 35 59 19 32 1010.1 1010.1 0.2
30/11:00pm 10.5 0.2 6.3 75 2.0 SSW 50 72 27 39 1008.7 1008.7 0.2
30/10:54pm 11.4 0.2 5.9 69 2.6 SSW 54 72 29 39 1008.0 1008.0 0.2
30/10:52pm 11.7 -0.1 5.6 66 2.8 SSW 57 72 31 39 1008.2 1008.2 0.2
30/10:34pm 14.1 7.5 6.2 59 3.8 SSW 30 48 16 26 1007.2 1007.2 0.2
30/10:30pm 14.7 9.0 6.8 59 3.9 SSW 26 43 14 23 1006.7 1006.7 0.2
30/10:20pm 16.3 9.6 7.3 55 4.5 SSW 32 41 17 22 1006.1 1006.1 0.2
30/10:00pm 20.3 16.6 6.3 40 7.1 WSW 15 22 8 12 1005.5 1005.5 0.2
30/09:30pm 21.3 15.4 6.0 37 7.7 W 26 44 14 24 1005.4 1005.4 0.2
30/09:01pm 23.4 16.8 4.4 29 9.4 W 28 54 15 29 1005.2 1005.2 0.2
30/09:00pm 23.3 17.2 4.8 30 9.2 W 26 48 14 26 1005.3 1005.3 0.2
30/08:30pm 22.8 17.0 4.3 30 9.1 WSW 24 37 13 20 1005.4 1005.4 0.2
30/08:00pm 23.3 18.3 3.8 28 9.6 WSW 19 26 10 14 1004.3 1004.3 0.2
30/07:30pm 24.0 17.2 3.3 26 10.1 WNW 28 52 15 28 1003.9 1003.9 0.2
30/07:27pm 24.4 17.5 2.5 24 10.5 WNW 28 52 15 28 1003.9 1003.9 0.2
30/07:00pm 23.8 18.4 2.6 25 10.2 WNW 20 35 11 19 1003.8 1003.8 0.2
30/06:30pm 24.4 18.2 1.9 23 10.7 WNW 24 46 13 25 1004.0 1004.0 0.2
30/06:00pm 24.7 17.3 1.6 22 11.0 WNW 30 54 16 29 1003.9 1003.9 0.2
30/05:30pm 25.8 18.0 1.8 21 11.5 WNW 32 52 17 28 1003.2 1003.2 0.2
30/05:00pm 26.3 19.4 2.3 21 11.7 W 28 46 15 25 1003.1 1003.1 0.2
30/04:59pm 26.4 19.5 2.3 21 11.7 W 28 46 15 25 1003.1 1003.1 0.2
30/04:30pm 27.0 21.7 2.8 21 11.9 WNW 20 39 11 21 1002.9 1002.9 0.2
30/04:00pm 27.3 20.9 3.1 21 12.0 WNW 26 50 14 27 1002.9 1002.9 0.2
30/03:30pm 28.1 20.7 1.6 18 12.9 WNW 30 59 16 32 1002.6 1002.6 0.2
30/03:26pm 28.0 20.5 1.5 18 12.8 WNW 30 59 16 32 1002.7 1002.7 0.2
30/03:00pm 28.4 23.2 3.3 20 12.6 WNW 20 32 11 17 1002.7 1002.7 0.2
30/02:30pm 28.6 23.4 2.7 19 12.9 W 19 44 10 24 1003.4 1003.4 0.2
30/02:00pm 28.9 23.6 5.1 22 12.4 W 22 35 12 19 1004.2 1004.2 0.2
30/01:30pm 28.8 22.8 3.6 20 12.7 W 24 35 13 19 1004.6 1004.6 0.2
30/01:00pm 28.6 20.7 1.2 17 13.3 W 32 48 17 26 1005.1 1005.1 0.2
30/12:48pm 28.3 21.0 0.1 16 13.3 W 28 57 15 31 1005.0 1005.0 0.2
30/12:30pm 28.4 23.3 4.0 21 12.4 W 20 33 11 18 1005.6 1005.6 0.2
30/12:00pm 25.4 25.0 12.3 44 7.6 SSW 6 11 3 6 1006.4 1006.4 0.2
30/11:30am 24.6 23.5 13.2 49 6.6 E 11 15 6 8 1007.0 1007.0 0.2
30/11:00am 23.6 23.1 13.8 54 5.7 E 9 13 5 7 1007.6 1007.6 0.2
30/10:30am 21.3 20.8 12.7 58 4.9 E 7 13 4 7 1008.4 1008.4 0.2
30/10:00am 18.6 18.6 13.7 73 2.8 NE 6 9 3 5 1009.0 1009.0 0.0
30/09:30am 14.2 14.4 13.2 94 0.6 SSE 4 9 2 5 1009.9 1009.9 0.0
30/09:00am 11.6 11.7 11.4 99 0.1 SW 2 7 1 4 1010.1 1010.1 0.0
30/08:30am 10.0 9.6 9.9 99 0.1 SSW 2 6 1 3 1010.6 1010.6 0.0
30/08:00am 8.7 7.6 8.6 99 0.0 SSW 4 7 2 4 1010.7 1010.7 0.0
30/07:30am 8.2 7.8 8.1 99 0.0 CALM 0 0 0 0 1011.0 1011.0 0.0
30/07:00am 7.6 6.6 7.5 99 0.0 N 2 7 1 4 1011.2 1011.2 0.0
30/06:30am 7.2 6.5 7.1 99 0.0 CALM 0 0 0 0 1011.4 1011.4 0.0
30/06:00am 6.9 6.2 6.8 99 0.0 CALM 0 0 0 0 1011.1 1011.1 0.0
30/05:30am 7.1 6.4 7.0 99 0.0 CALM 0 0 0 0 1011.1 1011.1 0.0
30/05:00am 7.1 6.4 7.0 99 0.0 CALM 0 0 0 0 1011.0 1011.0 0.0
30/04:30am 6.7 5.5 6.6 99 0.0 W 2 7 1 4 1011.0 1011.0 0.0
30/04:00am 6.4 5.6 6.3 99 0.0 CALM 0 0 0 0 1011.1 1011.1 0.0
30/03:30am 6.7 5.5 6.6 99 0.0 S 2 7 1 4 1011.4 1011.4 0.0
30/03:00am 6.8 6.0 6.7 99 0.0 CALM 0 0 0 0 1011.6 1011.6 0.0
30/02:30am 6.9 6.2 6.8 99 0.0 CALM 0 0 0 0 1011.9 1011.9 0.0
30/02:00am 7.1 6.4 7.0 99 0.0 CALM 0 0 0 0 1012.1 1012.1 0.0
30/01:30am 6.8 5.7 6.7 99 0.0 ENE 2 7 1 4 1012.3 1012.3 0.0
30/01:00am 7.7 7.1 7.6 99 0.0 CALM 0 6 0 3 1012.6 1012.6 0.0
30/12:30am 8.6 8.3 8.5 99 0.0 CALM 0 0 0 0 1013.1 1013.1 0.0
30/12:00am 8.7 7.2 8.4 98 0.1 S 6 7 3 4 1013.5 1013.5 0.0
 
Date/Time
EST
Temp
°C
App
Temp
°C
Dew
Point
Rel
Hum
%
Delta-T
°C
Wind Press
QNH
hPa
Press
MSL
hPa
Rain
since 9 am
mm
Dir
 
Spd
km/h
Gust
km/h
Spd
kts
Gust
kts
29/11:30pm 9.5 8.3 9.4 99 0.0 W 6 7 3 4 1013.7 1013.7 0.0
29/11:00pm 9.6 9.1 9.3 98 0.1 S 2 9 1 5 1014.0 1014.0 0.0
29/10:30pm 9.8 9.6 8.9 94 0.4 CALM 0 0 0 0 1014.2 1014.2 0.0
29/10:00pm 10.3 10.3 9.7 96 0.3 CALM 0 0 0 0 1014.4 1014.4 0.0
29/09:30pm 10.6 10.6 9.7 94 0.5 CALM 0 0 0 0 1014.6 1014.6 0.0
29/09:00pm 11.6 11.7 10.2 91 0.7 CALM 0 0 0 0 1014.7 1014.7 0.0
29/08:30pm 12.2 12.3 10.3 88 1.0 CALM 0 0 0 0 1015.0 1015.0 0.0
29/08:00pm 13.2 13.4 10.6 84 1.4 CALM 0 0 0 0 1015.1 1015.1 0.0
29/07:30pm 13.8 14.0 10.6 81 1.7 CALM 0 2 0 1 1015.0 1015.0 0.0
29/07:00pm 14.4 13.5 10.8 79 1.9 N 6 7 3 4 1014.8 1014.8 0.0
29/06:30pm 14.4 12.9 10.4 77 2.1 NNE 9 13 5 7 1014.5 1014.5 0.0
29/06:00pm 15.3 13.1 10.7 74 2.4 ENE 13 17 7 9 1014.3 1014.3 0.0
29/05:30pm 16.2 13.7 10.9 71 2.8 ENE 15 20 8 11 1013.9 1013.9 0.0
29/05:00pm 17.1 14.6 10.9 67 3.3 ENE 15 20 8 11 1013.8 1013.8 0.0
29/04:30pm 17.7 14.2 10.8 64 3.7 ENE 20 26 11 14 1013.5 1013.5 0.0
29/04:00pm 18.6 15.4 11.4 63 3.9 ENE 19 22 10 12 1013.3 1013.3 0.0
29/03:30pm 19.0 15.6 11.3 61 4.2 ENE 20 28 11 15 1013.0 1013.0 0.0
29/03:00pm 19.6 16.1 10.9 57 4.7 E 20 30 11 16 1012.7 1012.7 0.0
29/02:30pm 20.6 16.9 11.5 56 5.0 E 22 30 12 16 1012.5 1012.5 0.0
29/02:00pm 20.6 17.0 10.7 53 5.4 ENE 20 24 11 13 1012.1 1012.1 0.0
29/01:30pm 21.4 17.4 10.6 50 5.9 E 22 32 12 17 1012.1 1012.1 0.0
29/01:00pm 21.6 18.0 10.7 50 6.0 NE 20 28 11 15 1011.9 1011.9 0.0
29/12:30pm 21.6 18.1 10.1 48 6.2 ENE 19 26 10 14 1011.9 1011.9 0.0
29/12:00pm 21.5 18.3 10.0 48 6.2 E 17 24 9 13 1012.1 1012.1 0.0
29/11:30am 22.4 19.6 11.2 49 6.2 E 17 22 9 12 1012.2 1012.2 0.0
29/11:00am 21.7 18.2 10.2 48 6.3 E 19 24 10 13 1012.3 1012.3 0.0
29/10:30am 21.9 18.5 10.7 49 6.2 E 19 24 10 13 1012.4 1012.4 0.0
29/10:00am 21.5 18.4 10.3 49 6.1 NE 17 24 9 13 1012.2 1012.2 0.0
29/09:30am 20.7 17.6 10.2 51 5.7 E 17 20 9 11 1012.3 1012.3 0.0
29/09:00am 19.8 15.8 10.5 55 5.0 E 22 28 12 15 1012.3 1012.3 0.0
29/08:30am 20.4 17.3 11.6 57 4.9 E 19 24 10 13 1011.8 1011.8 0.0
29/08:00am 18.6 17.3 11.2 62 4.0 S 9 20 5 11 1011.5 1011.5 0.0
29/07:30am 17.3 15.1 10.7 65 3.5 S 13 24 7 13 1011.3 1011.3 0.0
29/07:00am 17.3 15.5 9.5 60 4.1 SSE 9 19 5 10 1010.8 1010.8 0.0
29/06:30am 18.5 16.5 6.4 45 6.0 E 6 11 3 6 1010.3 1010.3 0.0
29/06:00am 21.9 18.3 4.9 33 8.4 NNW 13 33 7 18 1009.5 1009.5 0.0
29/05:30am 20.5 16.1 4.9 36 7.6 NW 17 22 9 12 1008.8 1008.8 0.0
29/05:00am 20.5 16.8 4.5 35 7.8 N 13 19 7 10 1008.4 1008.4 0.0
29/04:30am 21.5 17.1 4.6 33 8.3 NNW 17 24 9 13 1007.4 1007.4 0.0
29/04:00am 21.5 17.5 5.0 34 8.2 NNW 15 19 8 10 1007.6 1007.6 0.0
29/03:30am 20.9 17.7 5.3 36 7.7 NNW 11 15 6 8 1007.9 1007.9 0.0
29/03:00am 20.9 17.0 5.3 36 7.7 N 15 20 8 11 1008.0 1008.0 0.0
29/02:30am 19.9 16.6 6.3 41 6.8 NNW 13 20 7 11 1008.1 1008.1 0.0
29/02:00am 16.9 15.4 8.6 58 4.3 WSW 6 11 3 6 1008.3 1008.3 0.0
29/01:30am 16.1 15.2 9.1 63 3.6 S 4 11 2 6 1008.8 1008.8 0.0
29/01:00am 17.3 15.4 9.0 58 4.3 SW 9 13 5 7 1008.9 1008.9 0.0
29/12:30am 17.1 15.6 10.5 65 3.5 WSW 9 19 5 10 1009.1 1009.1 0.0
29/12:00am 14.7 13.5 11.5 81 1.7 SSW 9 11 5 6 1009.2 1009.2 0.0
 
Date/Time
EST
Temp
°C
App
Temp
°C
Dew
Point
Rel
Hum
%
Delta-T
°C
Wind Press
QNH
hPa
Press
MSL
hPa
Rain
since 9 am
mm
Dir
 
Spd
km/h
Gust
km/h
Spd
kts
Gust
kts
28/11:30pm 13.0 12.2 10.9 87 1.1 N 6 9 3 5 1009.2 1009.2 0.0
28/11:00pm 14.1 13.2 10.7 80 1.8 NNE 6 9 3 5 1009.9 1009.9 0.0
28/10:30pm 13.7 13.4 11.6 87 1.1 N 4 9 2 5 1010.6 1010.6 0.0
28/10:00pm 13.4 13.1 11.3 87 1.1 N 4 7 2 4 1010.8 1010.8 0.0
28/09:30pm 14.7 14.2 12.0 84 1.5 SSW 6 11 3 6 1010.9 1010.9 0.0
28/09:00pm 14.0 12.8 11.5 85 1.3 S 9 11 5 6 1011.0 1011.0 0.0
28/08:30pm 16.5 15.5 12.3 76 2.3 NNW 9 11 5 6 1011.0 1011.0 0.0
28/08:00pm 16.1 15.6 12.7 80 1.9 N 7 11 4 6 1011.0 1011.0 0.0
28/07:30pm 17.1 16.1 12.2 73 2.7 NNW 9 13 5 7 1011.0 1011.0 0.0
28/07:00pm 17.8 18.6 12.5 71 3.0 CALM 0 0 0 0 1011.3 1011.3 0.0
28/06:30pm 19.4 19.6 12.9 66 3.7 E 4 6 2 3 1011.2 1011.2 0.0
28/06:00pm 19.8 19.9 12.8 64 4.0 SSW 4 7 2 4 1011.1 1011.1 0.0
28/05:30pm 20.2 19.0 12.7 62 4.2 NE 11 17 6 9 1010.9 1010.9 0.0
28/05:00pm 21.4 19.8 12.8 58 4.9 NE 13 19 7 10 1010.5 1010.5 0.0
28/04:30pm 22.3 19.4 12.8 55 5.4 NE 20 26 11 14 1010.5 1010.5 0.0
28/04:00pm 22.9 19.6 12.8 53 5.8 NE 22 28 12 15 1010.8 1010.8 0.0
28/03:30pm 23.5 20.3 13.1 52 6.0 NE 22 28 12 15 1011.0 1011.0 0.0
28/03:00pm 24.0 20.0 11.7 46 7.0 NE 24 30 13 16 1011.4 1011.4 0.0
28/02:30pm 25.0 21.4 11.9 44 7.5 ENE 22 30 12 16 1011.8 1011.8 0.0
28/02:00pm 25.3 22.0 11.5 42 7.8 NE 20 30 11 16 1012.3 1012.3 0.0
28/01:30pm 25.6 22.3 11.7 42 7.9 NE 20 24 11 13 1012.6 1012.6 0.0
28/01:00pm 26.4 24.3 11.3 39 8.6 ENE 13 22 7 12 1013.1 1013.1 0.0
28/12:30pm 25.7 23.5 9.5 36 8.9 NNE 11 17 6 9 1013.8 1013.8 0.0
28/12:00pm 25.1 22.6 9.8 38 8.4 ENE 13 17 7 9 1014.2 1014.2 0.0
28/11:30am 24.2 22.0 10.8 43 7.5 ENE 13 19 7 10 1014.8 1014.8 0.0
28/11:00am 22.2 20.4 10.7 48 6.3 NE 11 15 6 8 1015.4 1015.5 0.0
28/10:30am 20.9 20.2 12.1 57 4.9 N 7 13 4 7 1016.2 1016.2 0.0
28/10:00am 18.0 17.6 11.1 64 3.7 SSE 4 9 2 5 1017.1 1017.1 0.0

Other Formats:

Comma delimited format used in spreadsheet applications
http://www.bom.gov.au/fwo/IDN60801/IDN60801.95931.axf

JavaScript Object Notation format (JSON) in row-major order
http://www.bom.gov.au/fwo/IDN60801/IDN60801.95931.json